• Join FlightAware (Why Join?)
  • Login
  • US Flag 
06:19PM EDT


 

Airport Tracker/Info


-or-


 

Live Flight TrackerFlight Track Log ✈ TAM3884 ✈ 22-Jul-2013 ✈ SBKP / VCP - SBBR / BSB

Flight Track Log - Related Links

Times and Time Zones

All times are in EDT time to prevent confusion due to time zone crossing. See the TAM3884 flight status page for this flight to view local times or setup timezone preferences in your user account.

Time Position Orientation Groundspeed Altitude Reporting Facility
EDT Latitude Longitude Course Direction KTS MPH feet Rate Location/Type
06:03AM -22.0658 -47.2415 354° North  Level Estimated
06:04AM -21.9872 -47.2503 354° North  Level Estimated
06:05AM -21.9087 -47.2591 354° North  Level Estimated
06:06AM -21.8302 -47.2679 354° North  Level Estimated
06:07AM -21.7516 -47.2767 354° North  Level Estimated
06:08AM -21.6731 -47.2855 354° North  Level Estimated
06:09AM -21.5945 -47.2943 354° North  Level Estimated
06:10AM -21.5160 -47.3031 354° North  Level Estimated
06:11AM -21.4375 -47.3119 354° North  Level Estimated
06:12AM -21.3589 -47.3206 354° North  Level Estimated
06:13AM -21.2804 -47.3294 354° North  Level Estimated
06:14AM -21.2018 -47.3381 354° North  Level Estimated
06:15AM -21.1233 -47.3469 354° North  Level Estimated
06:16AM -21.0448 -47.3556 354° North  Level Estimated
06:17AM -20.9662 -47.3643 354° North  Level Estimated
06:18AM -20.8877 -47.3730 354° North  Level Estimated
06:19AM -20.8091 -47.3817 354° North  Level Estimated
06:20AM -20.7306 -47.3904 354° North  Level Estimated
06:21AM -20.6521 -47.3990 354° North  Level Estimated
06:22AM -20.5735 -47.4077 354° North  Level Estimated
06:23AM -20.4950 -47.4164 354° North  Level Estimated
06:24AM -20.4164 -47.4250 354° North  Level Estimated
06:25AM -20.3379 -47.4337 354° North  Level Estimated
06:26AM -20.2593 -47.4423 354° North  Level Estimated
06:27AM -20.1808 -47.4509 354° North  Level Estimated
06:28AM -20.1022 -47.4595 354° North  Level Estimated
06:29AM -20.0237 -47.4681 354° North  Level Estimated
06:30AM -19.9451 -47.4767 354° North  Level Estimated
06:31AM -19.8666 -47.4853 354° North  Level Estimated
06:32AM -19.7880 -47.4939 354° North  Level Estimated
06:33AM -19.7095 -47.5024 354° North  Level Estimated
06:34AM -19.6309 -47.5110 354° North  Level Estimated
06:35AM -19.5524 -47.5196 354° North  Level Estimated
06:36AM -19.4738 -47.5281 354° North  Level Estimated
06:37AM -19.3953 -47.5367 354° North  Level Estimated
06:38AM -19.3167 -47.5452 354° North  Level Estimated
06:39AM -19.2382 -47.5537 354° North  Level Estimated
06:40AM -19.1596 -47.5622 354° North  Level Estimated
06:41AM -19.0811 -47.5707 354° North  Level Estimated
06:42AM -19.0025 -47.5792 354° North  Level Estimated
06:43AM -18.9240 -47.5877 354° North  Level Estimated
06:44AM -18.8454 -47.5962 354° North  Level Estimated
06:45AM -18.7669 -47.6046 354° North  Level Estimated
06:46AM -18.6883 -47.6131 354° North  Level Estimated
06:47AM -18.6098 -47.6216 354° North  Level Estimated
06:48AM -18.5312 -47.6300 354° North  Level Estimated
06:49AM -18.4527 -47.6385 354° North  Level Estimated
06:50AM -18.3741 -47.6469 354° North  Level Estimated
06:51AM -18.2956 -47.6553 354° North  Level Estimated
06:52AM -18.2170 -47.6637 354° North  Level Estimated
06:53AM -18.1385 -47.6721 354° North  Level Estimated
06:54AM -18.0599 -47.6805 354° North  Level Estimated
06:55AM -17.9813 -47.6889 354° North  Level Estimated
06:56AM -17.9028 -47.6973 354° North  Level Estimated
06:57AM -17.8242 -47.7057 354° North  Level Estimated
06:58AM -17.7457 -47.7141 354° North  Level Estimated
06:59AM -17.6671 -47.7225 354° North  Level Estimated
07:00AM -17.5885 -47.7308 354° North  Level Estimated
07:01AM -17.5100 -47.7392 354° North  Level Estimated
07:02AM -17.4314 -47.7475 354° North  Level Estimated
07:03AM -17.3529 -47.7558 354° North  Level Estimated
07:04AM -17.2743 -47.7642 354° North  Level Estimated
07:05AM -17.1957 -47.7725 354° North  Level Estimated
07:06AM -17.1172 -47.7808 354° North  Level Estimated
07:07AM -17.0386 -47.7891 354° North  Level Estimated
07:08AM -16.9601 -47.7974 354° North  Level Estimated
07:09AM -16.8815 -47.8057 354° North  Level Estimated
07:10AM -16.8029 -47.8140 354° North  Level Estimated
07:11AM -16.7244 -47.8223 354° North  Level Estimated
07:12AM -16.6458 -47.8306 354° North  Level Estimated
07:13AM -16.5673 -47.8388 354° North  Level Estimated
07:14AM -16.4887 -47.8471 354° North  Level Estimated
07:15AM -16.4101 -47.8553 354° North  Level Estimated
07:16AM -16.3316 -47.8636 354° North  Level Estimated
07:17AM -16.2530 -47.8718 354° North  Level Estimated
07:18AM -16.1745 -47.8801 354° North  Level Estimated
07:19AM -16.0959 -47.8883 354° North  Level Estimated
07:20AM -16.0173 -47.8965 354° North  Level Estimated
07:21AM -15.9388 -47.9047 354° North  Level Estimated
07:22AM -15.8626 -47.9127 354° North  Level Estimated
07:23AM -15.8626 -47.9127 128° Southeast  Level Estimated
07:24AM -15.8626 -47.9127 128° Southeast  Level Estimated
07:25AM -15.8626 -47.9127 128° Southeast  Level Estimated
07:26AM -15.8626 -47.9127 128° Southeast  Level Estimated
07:27AM -15.8626 -47.9127 128° Southeast  Level Estimated
07:28AM -15.8626 -47.9127 128° Southeast  Level Estimated
07:29AM -15.8626 -47.9127 128° Southeast  Level Estimated
07:30AM -15.8626 -47.9127 128° Southeast  Level Estimated
07:31AM -15.8626 -47.9127 128° Southeast  Level Estimated
07:32AM -15.8626 -47.9127 128° Southeast  Level Estimated
07:33AM -15.8626 -47.9127 128° Southeast  Level Estimated
07:34AM -15.8626 -47.9127 128° Southeast  Level Estimated
07:35AM -15.8626 -47.9127 128° Southeast  Level Estimated
07:36AM -15.8626 -47.9127 128° Southeast  Level Estimated
07:37AM -15.8626 -47.9127 128° Southeast  Level Estimated
07:38AM -15.8626 -47.9127 128° Southeast  Level Estimated